Main page
METAR-TAF:

METAR-TAF

Airports :

Alderney Airport

Alderney,

latitude: 49-43N, longitude: 002-12W, elevation: 71 m

Current weather observation

The report was made 14 hours and 56 minutes ago, at 16:50 UTC
Wind 13 kt from the West
Temperature 13°C
Humidity 77%
Pressure 1004 hPa
Visibility 10 km or more
Few clouds at a height of 2000 ft

METAR: EGJA 041650Z 28013KT 9999 FEW020 13/09 Q1004

Time: 08:46 (07:46 UTC)

Forecast

The report was made 14 hours and 48 minutes ago, at 16:58 UTC
Forecast valid from 04 at 18 UTC to 05 at 03 UTC
Wind 14 kt from the West
Visibility 10 km or more
Few clouds at a height of 1500 ft
Scattered clouds at a height of 2000 ft
Temporary
from 04 at 21 UTC to 05 at 03 UTC
Visibility: 8000 m
Broken clouds at a height of 1200 ft
rain showers
Probability 30% :
Temporary
from 04 at 23 UTC to 05 at 03 UTC
Broken clouds at a height of 600 ft

TAF: EGJA 041658Z 0418/0503 28014KT 9999 FEW015 SCT020 TEMPO 0421/0503 8000 SHRA BKN012 PROB30 TEMPO 0423/0503 BKN006

Weather observations and forecasts of more than 4000 airports (METAR and TAF reports).

The available stations are represented by yellow and red dots on the map.

Hover mouse over dot to see the name of the station.

Then click to see weather observations and forecasts.

To change the map : click on the green buttons with a black cross to zoom in, on the green button with a dash to zoom out, or on the green arrows for adjacent maps.


METAR-TAF: